Terminal Aerodrome Forecast
Issued by NWS Wilmington, OH

Current Version | Previous Version | Text Only | Print | Product List | Glossary Off
Versions: 1 2 3 4 5 6 7 8 9 10 11 12 13 14 15 16 17 18 19 20 21

124
FTUS41 KILN 222320
TAFCVG
TAF
KCVG 222320Z 2300/2406 36010KT P6SM FEW090
     FM230100 03005KT P6SM SKC
     FM240000 VRB02KT P6SM SKC=

USA.gov is the U.S. government's official web portal to all federal, state and local government web resources and services.